Time;durP1;ratioP1;P1;durP2;ratioP2;P2;SDS_P1;SDS_P2;PMS_P1;PMS_P2;Temp;Humidity;BMP_temperature;BMP_pressure;BME280_temperature;BME280_humidity;BME280_pressure;Samples;Min_cycle;Max_cycle;Signal;HPM_P1;HPM_P2
2022/06/16 00:02:14;;;;;;;2.75;0.90;;;14.80;99.90;;;;;;5112939;28;20419;-80
2022/06/16 00:05:01;;;;;;;3.80;1.05;;;14.80;99.90;;;;;;5110122;28;20047;-81
2022/06/16 00:07:47;;;;;;;4.28;1.65;;;14.80;99.90;;;;;;5111898;28;20052;-82
2022/06/16 00:10:34;;;;;;;6.18;1.63;;;14.80;99.90;;;;;;5079468;28;20048;-83
2022/06/16 00:13:20;;;;;;;4.07;1.25;;;14.70;99.90;;;;;;5092596;28;20055;-82
2022/06/16 00:16:08;;;;;;;4.93;1.77;;;14.70;99.90;;;;;;5112561;27;20048;-83
2022/06/16 00:18:54;;;;;;;4.97;1.10;;;14.70;99.90;;;;;;5132985;27;20446;-83
2022/06/16 00:21:40;;;;;;;5.35;1.30;;;14.70;99.90;;;;;;5132548;27;20509;-81
2022/06/16 00:24:27;;;;;;;4.20;1.52;;;14.60;99.90;;;;;;5101514;27;20057;-82
2022/06/16 00:27:26;;;;;;;4.90;1.52;;;14.60;99.90;;;;;;5113896;27;20133;-83
2022/06/16 00:30:12;;;;;;;2.67;1.20;;;14.60;99.90;;;;;;5121112;27;20074;-83
2022/06/16 00:32:58;;;;;;;4.93;1.20;;;14.60;99.90;;;;;;5113812;27;20039;-84
2022/06/16 00:35:45;;;;;;;4.05;1.45;;;14.60;99.90;;;;;;5086847;27;20112;-82
2022/06/16 00:38:31;;;;;;;8.77;1.83;;;14.50;99.90;;;;;;5131636;27;20422;-83
2022/06/16 00:41:17;;;;;;;4.18;1.20;;;14.50;99.90;;;;;;5116013;27;20058;-83
2022/06/16 00:44:16;;;;;;;6.65;2.00;;;14.50;99.90;;;;;;5135545;27;20039;-83
2022/06/16 00:47:02;;;;;;;4.88;1.50;;;14.40;99.90;;;;;;5116285;27;20138;-84
2022/06/16 00:49:52;;;;;;;5.93;1.17;;;14.40;99.90;;;;;;5119214;27;20095;-82
2022/06/16 00:52:40;;;;;;;5.28;1.00;;;14.40;99.90;;;;;;5133375;27;20039;-84
2022/06/16 00:55:27;;;;;;;4.70;1.30;;;14.40;99.90;;;;;;5113723;27;20050;-82
2022/06/16 00:58:13;;;;;;;7.78;1.40;;;14.30;99.90;;;;;;5117322;27;20062;-81
2022/06/16 01:00:59;;;;;;;3.45;1.33;;;14.30;99.90;;;;;;5113123;27;20462;-83
2022/06/16 01:06:51;;;;;;;3.90;0.80;;;14.30;99.90;;;;;;5132100;27;20805;-83
2022/06/16 01:09:39;;;;;;;4.07;1.15;;;14.20;99.90;;;;;;5113861;27;20054;-81
2022/06/16 01:16:18;;;;;;;5.72;1.05;;;14.20;99.90;;;;;;5131650;27;20158;-82
2022/06/16 01:19:37;;;;;;;2.90;0.93;;;14.20;99.90;;;;;;5131857;27;20043;-85
2022/06/16 01:22:59;;;;;;;4.22;1.05;;;14.20;99.90;;;;;;5098740;27;20051;-84
2022/06/16 01:26:22;;;;;;;4.07;1.00;;;14.20;99.90;;;;;;5099456;27;20051;-83
2022/06/16 01:29:33;;;;;;;3.65;1.27;;;14.20;99.90;;;;;;5112685;27;20050;-81
2022/06/16 01:32:31;;;;;;;7.50;1.48;;;14.20;99.90;;;;;;5133751;27;20047;-82
2022/06/16 01:35:52;;;;;;;5.43;1.20;;;14.20;99.90;;;;;;5132755;27;20047;-83
2022/06/16 01:38:43;;;;;;;3.53;0.93;;;14.20;99.90;;;;;;5131536;27;20051;-83
2022/06/16 01:41:55;;;;;;;4.45;1.45;;;14.20;99.90;;;;;;5112654;28;20047;-82
2022/06/16 01:44:55;;;;;;;3.55;1.10;;;14.20;99.90;;;;;;5112814;27;20039;-83
2022/06/16 01:47:47;;;;;;;6.65;1.10;;;14.20;99.90;;;;;;5112644;27;20393;-83
2022/06/16 01:51:06;;;;;;;4.05;1.30;;;14.20;99.90;;;;;;5131855;27;20065;-83
2022/06/16 01:54:02;;;;;;;4.70;1.17;;;14.20;99.90;;;;;;5057023;28;20132;-84
2022/06/16 01:57:12;;;;;;;3.28;1.15;;;14.20;99.90;;;;;;5130072;28;20047;-84
2022/06/16 02:00:14;;;;;;;3.35;1.00;;;14.20;99.90;;;;;;5112957;28;20051;-81
2022/06/16 02:03:11;;;;;;;2.85;1.00;;;14.10;99.90;;;;;;5112017;28;20047;-83
2022/06/16 02:06:12;;;;;;;3.88;1.00;;;14.10;99.90;;;;;;5130184;28;20038;-82
2022/06/16 02:09:08;;;;;;;2.15;0.85;;;14.10;99.90;;;;;;5117016;27;20406;-83
2022/06/16 02:12:00;;;;;;;3.13;1.10;;;14.10;99.90;;;;;;5132308;28;20456;-82
2022/06/16 02:14:50;;;;;;;4.03;1.00;;;14.10;99.90;;;;;;5111910;28;20051;-84
2022/06/16 02:17:37;;;;;;;4.40;0.90;;;14.10;99.90;;;;;;5130136;28;20047;-84
2022/06/16 02:20:29;;;;;;;3.60;1.38;;;14.10;99.90;;;;;;5116076;28;20047;-83
2022/06/16 02:23:15;;;;;;;4.80;1.08;;;14.10;99.90;;;;;;5112124;28;20101;-83
2022/06/16 02:26:02;;;;;;;3.85;1.00;;;14.00;99.90;;;;;;5084689;28;20086;-82
2022/06/16 02:28:54;;;;;;;3.83;1.20;;;14.00;99.90;;;;;;5111449;28;20220;-84
2022/06/16 02:32:03;;;;;;;4.20;0.88;;;14.00;99.90;;;;;;5130244;28;20456;-84
2022/06/16 02:35:19;;;;;;;4.65;0.90;;;14.00;99.90;;;;;;5131564;28;20039;-82
2022/06/16 02:38:16;;;;;;;4.30;1.38;;;14.00;99.90;;;;;;5117329;28;20043;-82
2022/06/16 02:41:25;;;;;;;3.65;1.10;;;14.00;99.90;;;;;;5116582;28;20049;-82
2022/06/16 02:44:17;;;;;;;2.90;0.93;;;14.00;99.90;;;;;;5112255;28;20080;-82
2022/06/16 02:47:11;;;;;;;3.38;1.00;;;14.00;99.90;;;;;;5113152;28;20047;-81
2022/06/16 02:50:05;;;;;;;4.15;1.15;;;14.10;99.90;;;;;;5130532;28;20051;-81
2022/06/16 02:53:10;;;;;;;4.20;1.10;;;14.10;99.90;;;;;;5130780;28;20081;-84
2022/06/16 02:56:04;;;;;;;4.68;1.40;;;14.00;99.90;;;;;;5131938;28;20129;-84
2022/06/16 02:58:52;;;;;;;5.55;1.33;;;14.00;99.90;;;;;;5114421;28;20535;-82
2022/06/16 03:01:39;;;;;;;3.67;1.20;;;14.00;99.90;;;;;;5115202;27;20039;-84
2022/06/16 03:04:35;;;;;;;4.75;1.10;;;14.00;99.90;;;;;;5116438;27;20050;-82
2022/06/16 03:07:21;;;;;;;3.78;1.20;;;13.90;99.90;;;;;;5134873;27;20054;-84
2022/06/16 03:10:10;;;;;;;2.80;0.95;;;13.90;99.90;;;;;;5114722;27;20103;-83
2022/06/16 03:12:56;;;;;;;3.13;1.02;;;13.90;99.90;;;;;;5115402;27;20072;-83
2022/06/16 03:15:42;;;;;;;4.40;1.15;;;13.80;99.90;;;;;;5115621;27;20149;-82
2022/06/16 03:18:28;;;;;;;7.03;1.38;;;13.80;99.90;;;;;;5119233;27;20503;-81
2022/06/16 03:21:15;;;;;;;4.63;1.33;;;13.80;99.90;;;;;;5120099;27;20108;-81
2022/06/16 03:24:02;;;;;;;2.67;1.00;;;13.80;99.90;;;;;;5133079;27;20086;-80
2022/06/16 03:26:48;;;;;;;4.45;1.15;;;13.70;99.90;;;;;;5133422;27;20130;-83
2022/06/16 03:29:34;;;;;;;2.78;0.80;;;13.70;99.90;;;;;;5133170;27;20055;-83
2022/06/16 03:32:20;;;;;;;2.20;0.73;;;13.60;99.90;;;;;;5114466;27;20055;-82
2022/06/16 03:35:07;;;;;;;3.40;0.80;;;13.60;99.90;;;;;;5132730;27;20051;-82
2022/06/16 03:37:53;;;;;;;5.80;1.13;;;13.50;99.90;;;;;;5113650;27;20104;-81
2022/06/16 03:40:39;;;;;;;3.58;1.30;;;13.40;99.90;;;;;;5114661;27;20039;-81
2022/06/16 03:43:25;;;;;;;3.13;1.10;;;13.40;99.90;;;;;;5113556;27;20051;-81
2022/06/16 03:46:12;;;;;;;3.00;1.25;;;13.40;99.90;;;;;;5100723;27;20081;-82
2022/06/16 03:48:59;;;;;;;5.10;1.15;;;13.30;99.90;;;;;;5133122;27;20058;-82
2022/06/16 03:51:45;;;;;;;2.50;1.13;;;13.30;99.90;;;;;;5114126;27;20051;-82
2022/06/16 03:54:31;;;;;;;5.28;0.98;;;13.30;99.90;;;;;;5132574;27;20093;-83
2022/06/16 03:57:18;;;;;;;4.03;1.05;;;13.30;99.90;;;;;;5133842;27;20047;-83
2022/06/16 04:00:06;;;;;;;5.30;1.10;;;13.30;99.90;;;;;;5117667;27;20047;-83
2022/06/16 04:03:59;;;;;;;4.40;1.20;;;13.30;99.90;;;;;;5133389;27;20108;-84
2022/06/16 04:05:59;;;;;;;5.45;1.92;;;13.30;99.90;;;;;;5132319;27;20047;-83
2022/06/16 04:08:46;;;;;;;3.20;1.23;;;13.20;99.90;;;;;;5132609;27;20089;-82
2022/06/16 04:11:32;;;;;;;2.38;1.05;;;13.30;99.90;;;;;;5132013;27;20043;-85
2022/06/16 04:14:18;;;;;;;3.25;1.05;;;13.30;99.90;;;;;;5113495;27;20047;-81
2022/06/16 04:25:12;;;;;;;3.88;1.20;;;13.40;99.90;;;;;;5133671;27;20088;-81
2022/06/16 04:28:03;;;;;;;4.15;1.17;;;13.50;99.90;;;;;;5132370;27;20503;-84
2022/06/16 04:31:41;;;;;;;2.78;0.90;;;13.50;99.90;;;;;;5132254;27;20035;-82
2022/06/16 04:34:27;;;;;;;4.32;1.17;;;13.70;99.90;;;;;;5113123;27;20035;-79
2022/06/16 04:37:13;;;;;;;5.72;1.17;;;13.70;99.90;;;;;;5112434;27;20151;-80
2022/06/16 04:40:00;;;;;;;4.95;1.10;;;13.80;99.90;;;;;;5112994;27;20050;-80
2022/06/16 04:42:46;;;;;;;5.45;1.27;;;13.90;99.90;;;;;;5131137;27;20058;-82
2022/06/16 04:45:32;;;;;;;3.78;1.02;;;14.00;99.90;;;;;;5131041;27;20047;-82
2022/06/16 04:48:18;;;;;;;4.75;1.50;;;14.00;99.90;;;;;;5117719;27;20082;-84
2022/06/16 04:51:05;;;;;;;4.35;1.50;;;14.10;99.90;;;;;;5117486;27;20066;-82
2022/06/16 04:53:51;;;;;;;2.10;0.80;;;14.10;99.90;;;;;;5131790;27;20144;-84
2022/06/16 04:56:37;;;;;;;8.50;1.42;;;14.20;99.90;;;;;;5114306;27;20051;-81
2022/06/16 04:59:23;;;;;;;4.25;1.50;;;14.30;99.90;;;;;;5131924;27;20051;-82
2022/06/16 05:02:09;;;;;;;6.07;1.50;;;14.40;99.90;;;;;;5085561;27;20100;-81
2022/06/16 05:04:55;;;;;;;5.50;1.23;;;14.50;99.90;;;;;;5100527;27;20047;-84
2022/06/16 05:07:42;;;;;;;3.42;1.40;;;14.60;99.90;;;;;;5131190;27;20096;-83
2022/06/16 05:10:28;;;;;;;4.97;1.40;;;14.70;99.90;;;;;;5131975;27;20068;-86
2022/06/16 05:13:14;;;;;;;3.13;1.30;;;14.70;99.90;;;;;;5131999;27;20165;-84
2022/06/16 05:16:01;;;;;;;7.03;1.80;;;14.80;99.90;;;;;;5113989;27;20047;-82
2022/06/16 05:18:48;;;;;;;5.45;1.48;;;14.90;99.90;;;;;;5132248;27;20517;-81
2022/06/16 05:21:35;;;;;;;4.78;1.55;;;15.00;99.90;;;;;;5131785;27;20688;-82
2022/06/16 05:24:21;;;;;;;8.30;1.40;;;15.10;99.90;;;;;;5098462;27;20054;-83
2022/06/16 05:27:07;;;;;;;4.22;1.08;;;15.10;99.90;;;;;;5116208;27;20039;-83
2022/06/16 05:29:54;;;;;;;3.90;1.20;;;15.20;99.90;;;;;;5112837;27;20227;-81
2022/06/16 05:32:41;;;;;;;6.82;1.50;;;15.30;99.90;;;;;;5114300;27;20043;-84
2022/06/16 05:35:27;;;;;;;3.28;1.15;;;15.40;99.90;;;;;;5114546;27;20046;-82
2022/06/16 05:38:14;;;;;;;6.43;1.77;;;15.50;99.90;;;;;;5134107;27;20138;-85
2022/06/16 05:41:13;;;;;;;4.88;1.33;;;15.70;99.90;;;;;;5131588;27;20061;-82
2022/06/16 05:43:59;;;;;;;3.72;1.40;;;15.80;99.90;;;;;;5130912;27;20054;-86
2022/06/16 05:46:45;;;;;;;2.40;0.90;;;15.90;99.90;;;;;;5098677;27;20043;-82
2022/06/16 05:49:33;;;;;;;4.07;0.90;;;16.00;99.90;;;;;;5128995;27;20059;-85
2022/06/16 05:52:21;;;;;;;4.63;1.20;;;16.10;99.90;;;;;;5131066;27;20050;-83
2022/06/16 05:55:13;;;;;;;4.45;1.48;;;16.20;99.90;;;;;;5113061;28;20573;-84
2022/06/16 05:58:01;;;;;;;6.13;1.30;;;16.30;99.90;;;;;;5132583;28;20047;-85
2022/06/16 06:00:47;;;;;;;6.15;1.48;;;16.40;99.90;;;;;;5132500;28;20187;-83
2022/06/16 06:03:35;;;;;;;4.72;1.25;;;16.50;99.90;;;;;;5113516;28;20078;-83
2022/06/16 06:06:21;;;;;;;4.13;1.60;;;16.60;99.90;;;;;;5132111;28;20043;-82
2022/06/16 06:18:36;;;;;;;3.33;1.20;;;17.10;99.90;;;;;;5132267;28;20130;-84
2022/06/16 06:24:35;;;;;;;4.40;1.67;;;17.30;99.90;;;;;;5113558;28;20111;-82
2022/06/16 06:27:40;;;;;;;6.20;1.67;;;17.50;99.90;;;;;;5131967;28;20058;-84
2022/06/16 06:30:29;;;;;;;4.57;1.30;;;17.60;99.90;;;;;;5131433;28;20066;-82
2022/06/16 06:33:15;;;;;;;4.05;0.80;;;17.80;99.90;;;;;;5112296;28;20049;-83
2022/06/16 06:36:02;;;;;;;4.93;1.02;;;18.10;99.90;;;;;;5099625;27;20062;-84
2022/06/16 06:38:48;;;;;;;3.00;0.90;;;18.20;99.90;;;;;;5134586;27;20592;-83
2022/06/16 06:41:34;;;;;;;5.70;1.20;;;18.30;99.90;;;;;;5116928;27;20043;-84
2022/06/16 06:44:20;;;;;;;4.63;1.10;;;18.30;99.90;;;;;;5135200;27;20049;-85
2022/06/16 06:47:07;;;;;;;4.72;1.13;;;18.30;99.90;;;;;;5133644;27;20053;-84
2022/06/16 06:49:54;;;;;;;5.15;0.82;;;18.50;99.90;;;;;;5116241;27;20495;-81
2022/06/16 06:52:40;;;;;;;3.90;1.13;;;18.60;99.90;;;;;;5115407;27;20065;-82
2022/06/16 06:55:27;;;;;;;6.80;1.30;;;18.70;99.90;;;;;;5116459;27;20043;-83
2022/06/16 06:58:19;;;;;;;3.45;1.23;;;18.90;99.90;;;;;;5134122;27;20404;-82
2022/06/16 07:01:06;;;;;;;6.53;1.30;;;18.80;99.90;;;;;;5135888;27;20057;-83
2022/06/16 07:03:52;;;;;;;3.58;1.23;;;18.80;99.90;;;;;;5114993;27;20057;-83
2022/06/16 07:06:39;;;;;;;4.00;1.10;;;18.80;99.90;;;;;;5114529;27;20047;-84
2022/06/16 07:09:25;;;;;;;3.65;1.00;;;19.00;99.90;;;;;;5117619;27;20050;-84
2022/06/16 07:12:16;;;;;;;7.22;2.00;;;19.10;99.90;;;;;;5133313;27;20035;-80
2022/06/16 07:15:04;;;;;;;6.10;1.10;;;19.30;99.80;;;;;;5133710;27;20049;-84
2022/06/16 07:17:51;;;;;;;3.25;1.00;;;19.30;99.70;;;;;;5132918;27;20135;-80
2022/06/16 07:20:37;;;;;;;4.40;1.30;;;19.30;99.70;;;;;;5100170;27;20039;-81
2022/06/16 07:23:23;;;;;;;4.80;0.88;;;19.20;98.40;;;;;;5133634;27;20089;-81
2022/06/16 07:26:10;;;;;;;9.05;1.27;;;19.10;97.30;;;;;;5133865;27;20051;-81
2022/06/16 07:28:59;;;;;;;4.40;0.95;;;19.20;96.00;;;;;;5116384;27;20391;-82
2022/06/16 07:31:45;;;;;;;2.65;0.70;;;19.20;95.70;;;;;;5114612;27;20103;-83
2022/06/16 07:34:32;;;;;;;2.33;0.70;;;19.50;95.70;;;;;;5133101;27;20039;-81
2022/06/16 07:37:19;;;;;;;3.08;0.80;;;19.60;93.40;;;;;;5101518;27;20562;-81
2022/06/16 07:40:06;;;;;;;6.57;1.27;;;19.90;92.90;;;;;;5114383;27;20051;-81
2022/06/16 07:42:56;;;;;;;4.80;0.80;;;20.30;92.50;;;;;;5133850;27;20486;-82
2022/06/16 07:45:43;;;;;;;3.15;0.80;;;20.40;91.40;;;;;;5115941;27;20061;-83
2022/06/16 07:48:29;;;;;;;5.22;1.00;;;20.40;90.60;;;;;;5117327;27;20082;-84
2022/06/16 07:51:15;;;;;;;3.97;1.38;;;20.60;91.30;;;;;;5119358;27;20089;-83
2022/06/16 07:54:01;;;;;;;3.85;1.00;;;20.70;91.30;;;;;;5132961;27;20039;-83
2022/06/16 07:56:48;;;;;;;2.40;0.70;;;20.90;90.50;;;;;;5102935;27;20555;-83
2022/06/16 07:59:34;;;;;;;2.28;0.77;;;21.10;89.60;;;;;;5116049;27;20046;-82
2022/06/16 08:02:20;;;;;;;4.43;1.23;;;21.30;89.90;;;;;;5101210;27;20388;-84
2022/06/16 08:05:10;;;;;;;3.60;1.13;;;21.40;88.60;;;;;;5112774;27;20133;-81
2022/06/16 08:07:57;;;;;;;3.47;1.20;;;21.70;85.40;;;;;;5131366;27;20131;-80
2022/06/16 08:10:43;;;;;;;3.50;1.17;;;22.00;85.40;;;;;;5132007;27;20163;-81
2022/06/16 08:13:29;;;;;;;3.38;1.20;;;22.00;81.50;;;;;;5132338;27;20087;-82
2022/06/16 08:16:16;;;;;;;6.00;1.20;;;22.00;81.50;;;;;;5113096;27;21889;-82
2022/06/16 08:19:03;;;;;;;3.10;1.25;;;22.00;84.10;;;;;;5132917;27;20055;-81
2022/06/16 08:21:50;;;;;;;6.05;1.13;;;22.10;85.60;;;;;;5114770;27;20058;-83
2022/06/16 08:24:36;;;;;;;7.20;1.20;;;22.10;87.80;;;;;;5131606;27;20043;-80
2022/06/16 08:27:27;;;;;;;5.47;1.13;;;22.30;86.40;;;;;;5130766;27;20051;-80
2022/06/16 08:30:16;;;;;;;2.92;0.95;;;22.60;82.70;;;;;;5132697;27;20081;-81
2022/06/16 08:33:03;;;;;;;5.22;1.13;;;23.20;85.50;;;;;;5132691;27;20047;-80
2022/06/16 08:35:49;;;;;;;3.40;1.00;;;23.10;82.10;;;;;;5131638;27;20147;-81
2022/06/16 08:38:35;;;;;;;4.93;1.45;;;23.30;85.70;;;;;;5103869;27;20104;-81
2022/06/16 08:41:45;;;;;;;3.65;0.85;;;23.40;82.10;;;;;;5100145;27;20043;-80
2022/06/16 08:44:46;;;;;;;7.50;1.25;;;23.40;78.10;;;;;;5117436;27;20083;-82
2022/06/16 08:47:49;;;;;;;2.78;0.88;;;23.40;77.70;;;;;;5114007;27;20070;-83
2022/06/16 08:50:45;;;;;;;3.22;1.00;;;23.40;76.40;;;;;;5131447;27;20105;-81
2022/06/16 08:53:33;;;;;;;4.15;1.55;;;23.60;76.40;;;;;;5132116;27;20129;-82
2022/06/16 08:56:50;;;;;;;4.05;1.30;;;23.40;75.70;;;;;;5117375;27;20113;-83
2022/06/16 08:59:41;;;;;;;5.15;1.35;;;23.30;77.20;;;;;;5132265;27;20047;-82
2022/06/16 09:02:52;;;;;;;4.78;1.15;;;23.30;77.90;;;;;;5113092;27;20047;-82
2022/06/16 09:05:49;;;;;;;3.55;1.08;;;23.70;75.90;;;;;;5131362;27;20043;-80
2022/06/16 09:08:43;;;;;;;4.55;1.52;;;23.70;78.30;;;;;;5132633;27;20138;-81
2022/06/16 09:11:48;;;;;;;;;;;23.80;73.60;;;;;;5113040;27;20092;-81
2022/06/16 09:15:11;;;;;;;5.47;1.20;;;23.70;70.80;;;;;;5131218;27;19924;-82
2022/06/16 09:18:17;;;;;;;4.35;1.10;;;23.90;72.00;;;;;;5131127;27;20051;-83
2022/06/16 09:21:06;;;;;;;6.22;1.42;;;24.10;72.50;;;;;;5099164;27;20054;-82
2022/06/16 09:24:33;;;;;;;4.15;1.17;;;24.50;72.30;;;;;;5113247;27;20100;-83
2022/06/16 09:27:32;;;;;;;5.50;1.23;;;24.80;71.70;;;;;;5028572;28;20084;-83
2022/06/16 09:30:22;;;;;;;4.82;1.10;;;24.90;68.20;;;;;;5115484;27;20047;-82
2022/06/16 09:33:17;;;;;;;2.53;0.90;;;25.00;69.80;;;;;;5131382;27;20134;-81
2022/06/16 09:36:11;;;;;;;2.80;0.90;;;25.10;65.90;;;;;;5116120;27;20487;-82
2022/06/16 09:39:23;;;;;;;2.80;0.93;;;25.30;63.50;;;;;;5112431;27;20462;-82
2022/06/16 09:45:35;;;;;;;2.63;1.10;;;25.50;62.20;;;;;;5111791;28;20043;-82
2022/06/16 09:48:47;;;;;;;6.50;1.00;;;25.40;57.90;;;;;;5111152;28;20090;-83
2022/06/16 09:51:44;;;;;;;2.80;0.95;;;25.40;57.90;;;;;;5101719;27;20051;-83
2022/06/16 09:54:44;;;;;;;4.32;1.10;;;25.40;58.70;;;;;;5129678;27;20051;-81
2022/06/16 09:57:45;;;;;;;3.40;1.10;;;25.70;55.70;;;;;;5112567;28;20074;-81
2022/06/16 10:00:34;;;;;;;3.72;1.40;;;25.70;53.60;;;;;;5112836;28;20043;-85
2022/06/16 10:03:53;;;;;;;4.00;1.23;;;25.60;56.60;;;;;;5111087;28;20051;-83
2022/06/16 10:06:55;;;;;;;5.32;1.35;;;25.60;55.10;;;;;;5112094;28;20057;-83
2022/06/16 10:09:59;;;;;;;2.92;1.08;;;25.60;57.70;;;;;;5131725;27;20086;-82
2022/06/16 10:12:56;;;;;;;2.95;1.10;;;25.80;58.50;;;;;;5115416;27;20051;-82
2022/06/16 10:15:59;;;;;;;3.80;1.30;;;25.90;55.80;;;;;;5103298;27;20093;-82
2022/06/16 10:18:46;;;;;;;4.53;1.27;;;25.50;55.40;;;;;;5134077;27;20058;-83
2022/06/16 10:21:34;;;;;;;4.28;1.52;;;24.90;58.00;;;;;;5115937;27;20245;-83
2022/06/16 10:24:25;;;;;;;4.93;1.50;;;24.90;57.30;;;;;;5135765;27;20050;-80
2022/06/16 10:27:15;;;;;;;2.85;1.15;;;24.70;59.90;;;;;;5134635;27;20054;-81
2022/06/16 10:30:06;;;;;;;3.60;1.20;;;24.60;59.60;;;;;;5115374;27;20051;-80
2022/06/16 10:33:11;;;;;;;3.60;1.30;;;24.60;59.90;;;;;;5116264;27;20051;-81
2022/06/16 10:36:00;;;;;;;;;;;24.70;61.80;;;;;;5135152;27;20066;-81
2022/06/16 10:39:06;;;;;;;3.45;1.38;;;24.50;60.40;;;;;;5136184;27;19919;-80
2022/06/16 10:42:04;;;;;;;6.45;1.88;;;24.40;63.90;;;;;;5133752;27;20059;-81
2022/06/16 10:44:53;;;;;;;3.25;1.10;;;24.10;62.50;;;;;;5101226;27;20499;-79
2022/06/16 10:48:09;;;;;;;3.40;1.30;;;24.50;60.90;;;;;;5133925;27;20126;-81
2022/06/16 10:51:29;;;;;;;4.45;1.35;;;24.60;62.60;;;;;;5134161;27;20051;-81
2022/06/16 10:54:34;;;;;;;2.95;1.00;;;24.70;61.50;;;;;;5115858;27;20566;-80
2022/06/16 10:57:27;;;;;;;3.53;1.05;;;25.00;63.30;;;;;;5115465;27;20051;-83
2022/06/16 11:00:22;;;;;;;8.27;1.58;;;25.50;60.60;;;;;;5114845;27;20059;-82
2022/06/16 11:03:17;;;;;;;3.60;1.25;;;26.10;60.60;;;;;;5117742;27;20051;-81
2022/06/16 11:06:07;;;;;;;4.57;1.15;;;26.50;54.40;;;;;;5101003;27;20111;-80
2022/06/16 11:09:03;;;;;;;6.43;1.92;;;26.40;57.50;;;;;;5134490;27;20087;-82
2022/06/16 11:11:56;;;;;;;3.65;1.35;;;25.90;59.30;;;;;;5115974;27;20521;-82
2022/06/16 11:14:44;;;;;;;3.30;1.15;;;25.40;63.20;;;;;;5133543;27;20051;-81
2022/06/16 11:17:42;;;;;;;4.30;1.00;;;25.70;65.00;;;;;;5118418;27;20066;-81
2022/06/16 11:20:38;;;;;;;3.60;1.17;;;26.10;62.90;;;;;;5115614;27;20051;-81
2022/06/16 11:23:29;;;;;;;2.78;1.23;;;26.40;65.80;;;;;;5133156;27;20051;-79
2022/06/16 11:26:29;;;;;;;4.60;1.23;;;26.20;67.50;;;;;;5114902;27;20043;-81
2022/06/16 11:29:24;;;;;;;3.17;1.67;;;26.20;60.60;;;;;;5117322;27;20047;-82
2022/06/16 11:32:17;;;;;;;;;;;26.00;59.10;;;;;;5116753;27;20195;-80
2022/06/16 11:35:05;;;;;;;4.10;1.48;;;25.80;58.90;;;;;;5114632;27;19923;-80
2022/06/16 11:37:56;;;;;;;3.60;1.17;;;26.00;60.60;;;;;;5118776;27;20105;-81
2022/06/16 11:40:58;;;;;;;3.47;1.42;;;26.00;60.30;;;;;;5117918;27;20043;-81
2022/06/16 11:44:09;;;;;;;6.40;1.42;;;26.00;57.00;;;;;;5113178;27;20116;-79
2022/06/16 11:47:07;;;;;;;4.43;1.23;;;25.60;58.70;;;;;;5115880;27;20055;-78
2022/06/16 11:50:08;;;;;;;3.65;1.08;;;25.60;60.50;;;;;;5114997;27;20058;-79
2022/06/16 11:53:03;;;;;;;3.00;1.20;;;26.20;63.60;;;;;;5115541;27;20078;-80
2022/06/16 11:56:04;;;;;;;5.95;1.80;;;26.50;64.40;;;;;;5117688;27;20628;-80
2022/06/16 11:59:13;;;;;;;3.72;1.05;;;27.00;65.20;;;;;;5133276;27;20093;-80
2022/06/16 12:02:27;;;;;;;5.22;1.48;;;26.60;66.30;;;;;;5100685;27;20083;-80
2022/06/16 12:05:29;;;;;;;3.50;1.17;;;27.40;58.20;;;;;;5114851;27;20488;-80
2022/06/16 12:08:49;;;;;;;7.28;2.03;;;27.80;57.50;;;;;;5133048;27;20047;-79
2022/06/16 12:12:14;;;;;;;7.22;1.20;;;28.30;57.90;;;;;;5101165;27;20062;-80
2022/06/16 12:15:21;;;;;;;5.35;1.00;;;28.60;56.30;;;;;;5113886;27;20055;-80
2022/06/16 12:18:34;;;;;;;4.05;1.20;;;28.80;54.70;;;;;;5113817;27;20055;-80
2022/06/16 12:21:35;;;;;;;4.03;1.20;;;28.30;55.20;;;;;;5114232;27;20076;-80
2022/06/16 12:24:38;;;;;;;4.68;1.40;;;28.30;56.20;;;;;;5132100;27;20388;-81
2022/06/16 12:27:44;;;;;;;5.13;1.23;;;28.70;56.60;;;;;;5118104;27;20047;-80
2022/06/16 12:30:42;;;;;;;5.68;1.15;;;29.00;54.90;;;;;;5113682;27;20059;-80
2022/06/16 12:33:45;;;;;;;3.30;1.20;;;29.20;52.30;;;;;;5114559;27;20039;-81
2022/06/16 12:36:53;;;;;;;2.60;1.08;;;29.60;53.50;;;;;;5113227;27;20871;-82
2022/06/16 12:39:55;;;;;;;3.72;1.33;;;29.80;50.30;;;;;;5098692;27;20047;-81
2022/06/16 12:43:09;;;;;;;3.85;1.98;;;29.70;51.70;;;;;;5100615;27;20132;-80
2022/06/16 12:46:03;;;;;;;4.73;1.13;;;29.80;52.70;;;;;;5113605;27;20486;-81
2022/06/16 12:48:55;;;;;;;3.85;1.13;;;30.00;49.40;;;;;;5131819;27;20039;-81
2022/06/16 12:51:47;;;;;;;3.20;1.33;;;29.60;50.40;;;;;;5131140;27;20046;-79
2022/06/16 12:54:43;;;;;;;4.32;1.15;;;29.50;49.00;;;;;;5131625;27;20815;-79
2022/06/16 12:57:44;;;;;;;4.82;1.08;;;29.60;49.70;;;;;;5132335;27;20446;-79
2022/06/16 13:00:35;;;;;;;2.65;0.90;;;29.80;47.00;;;;;;5130688;27;20142;-80
2022/06/16 13:03:40;;;;;;;2.55;0.90;;;30.20;49.30;;;;;;5077298;27;20104;-81
2022/06/16 13:06:28;;;;;;;5.60;1.17;;;30.00;46.10;;;;;;5099185;27;20049;-80
2022/06/16 13:09:15;;;;;;;3.78;1.00;;;29.50;47.60;;;;;;5131940;27;20429;-80
2022/06/16 13:12:06;;;;;;;2.38;1.00;;;29.40;47.20;;;;;;5113967;27;20055;-81
2022/06/16 13:15:24;;;;;;;4.25;1.20;;;29.60;47.50;;;;;;5132019;27;20043;-82
2022/06/16 13:18:14;;;;;;;3.78;1.40;;;29.60;45.40;;;;;;5131962;27;20087;-80
2022/06/16 13:21:05;;;;;;;3.03;1.20;;;29.90;46.90;;;;;;5131474;27;20049;-80
2022/06/16 13:24:11;;;;;;;3.38;1.20;;;30.10;46.90;;;;;;5116923;27;20051;-79
2022/06/16 13:27:25;;;;;;;3.63;0.98;;;30.00;47.70;;;;;;5112883;27;20064;-80
2022/06/16 13:30:39;;;;;;;6.97;1.45;;;29.70;48.70;;;;;;5131270;27;20040;-80
2022/06/16 13:33:43;;;;;;;5.55;1.38;;;29.60;46.30;;;;;;5116188;27;20082;-79
2022/06/16 13:36:33;;;;;;;6.40;1.60;;;29.70;47.30;;;;;;5112530;27;20495;-80
2022/06/16 13:39:56;;;;;;;3.28;1.20;;;30.20;48.40;;;;;;5132044;27;20069;-81
2022/06/16 13:42:52;;;;;;;3.30;1.17;;;30.40;46.40;;;;;;5131068;27;20051;-79
2022/06/16 13:45:59;;;;;;;5.03;1.10;;;30.10;46.90;;;;;;5130002;27;20048;-79
2022/06/16 13:48:52;;;;;;;3.60;1.20;;;30.40;46.60;;;;;;5116371;27;20129;-81
2022/06/16 13:51:43;;;;;;;6.07;1.80;;;30.30;45.80;;;;;;5132080;27;20051;-80
2022/06/16 13:54:34;;;;;;;5.70;1.60;;;30.90;47.80;;;;;;5132035;27;20172;-81
2022/06/16 13:57:25;;;;;;;5.40;1.80;;;31.10;48.60;;;;;;5130551;27;20055;-79
2022/06/16 14:00:30;;;;;;;4.80;1.58;;;30.70;48.90;;;;;;5131510;28;20146;-79
2022/06/16 14:03:17;;;;;;;;;;;30.80;49.60;;;;;;5131067;28;20043;-80
2022/06/16 14:06:10;;;;;;;4.22;1.40;;;30.60;47.80;;;;;;5116760;28;19927;-79
2022/06/16 14:09:02;;;;;;;4.60;1.20;;;30.70;49.00;;;;;;5112523;28;20079;-79
2022/06/16 14:12:07;;;;;;;4.78;1.77;;;31.20;47.60;;;;;;5130838;28;20090;-80
2022/06/16 14:14:56;;;;;;;8.32;1.90;;;31.30;46.90;;;;;;5130608;28;20051;-80
2022/06/16 14:17:42;;;;;;;5.30;1.58;;;31.60;46.00;;;;;;5130264;28;20448;-80
2022/06/16 14:20:36;;;;;;;10.90;2.10;;;31.60;44.90;;;;;;5112193;28;20134;-82
2022/06/16 14:23:34;;;;;;;7.22;1.98;;;31.80;43.80;;;;;;5111859;28;20546;-81
2022/06/16 14:26:24;;;;;;;3.95;1.50;;;32.10;44.40;;;;;;5130141;28;20406;-80
2022/06/16 14:33:42;;;;;;;4.43;1.27;;;31.80;41.50;;;;;;5112624;28;20039;-81
2022/06/16 14:36:38;;;;;;;3.92;1.40;;;32.00;41.40;;;;;;5130817;28;20391;-81
2022/06/16 14:39:50;;;;;;;4.15;1.42;;;31.80;39.80;;;;;;5131499;28;20049;-81
2022/06/16 14:42:42;;;;;;;4.25;1.40;;;31.60;40.60;;;;;;5114686;28;20130;-81
2022/06/16 14:46:00;;;;;;;4.80;1.50;;;31.60;40.70;;;;;;5111392;28;20043;-81
2022/06/16 14:48:49;;;;;;;3.75;1.33;;;31.60;40.90;;;;;;5110386;28;20044;-81
2022/06/16 14:51:40;;;;;;;3.70;1.45;;;31.70;41.10;;;;;;5112589;28;20108;-80
2022/06/16 14:54:37;;;;;;;4.53;1.40;;;31.60;40.40;;;;;;5130461;28;20526;-80
2022/06/16 14:57:27;;;;;;;4.13;1.38;;;31.50;40.20;;;;;;5131326;27;20421;-80
2022/06/16 15:00:41;;;;;;;2.97;1.23;;;31.40;41.90;;;;;;5115724;27;20258;-81
2022/06/16 15:03:31;;;;;;;3.58;1.50;;;31.50;41.80;;;;;;5115418;27;20054;-81
2022/06/16 15:06:18;;;;;;;4.88;1.42;;;31.30;41.30;;;;;;5115070;27;20559;-80
2022/06/16 15:09:05;;;;;;;4.63;1.70;;;31.30;41.40;;;;;;5133322;27;20411;-80
2022/06/16 15:11:54;;;;;;;3.70;1.52;;;31.30;41.40;;;;;;5134208;27;20047;-81
2022/06/16 15:14:42;;;;;;;4.72;1.52;;;31.60;42.10;;;;;;5133770;27;20039;-79
2022/06/16 15:20:34;;;;;;;;;;;31.90;40.80;;;;;;5108332;27;20506;-80
2022/06/16 15:23:24;;;;;;;7.90;1.98;;;31.50;40.90;;;;;;5101696;27;19923;-80
2022/06/16 15:26:21;;;;;;;4.88;1.55;;;31.40;41.40;;;;;;5118154;27;20078;-80
2022/06/16 15:29:14;;;;;;;6.28;2.00;;;31.10;41.40;;;;;;5133599;27;20047;-80
2022/06/16 15:32:03;;;;;;;4.07;1.40;;;30.90;42.00;;;;;;5118245;27;20571;-81
2022/06/16 15:37:53;;;;;;;8.63;1.70;;;29.90;43.00;;;;;;5115164;27;20086;-80
2022/06/16 15:40:41;;;;;;;6.20;1.90;;;29.90;43.60;;;;;;5115478;27;20066;-80
2022/06/16 15:43:34;;;;;;;4.57;1.52;;;29.80;43.30;;;;;;5118417;27;20039;-80
2022/06/16 15:46:21;;;;;;;6.05;1.63;;;29.80;43.30;;;;;;5114567;27;20058;-80
2022/06/16 15:49:09;;;;;;;3.67;1.50;;;29.50;43.50;;;;;;5114514;27;20043;-80